createdAt,value
2022-10-20T00:01:36.203Z,102068.28
2022-10-20T00:04:03.724Z,102062.72
2022-10-20T00:06:33.269Z,102062.22
2022-10-20T00:09:03.391Z,102056.84
2022-10-20T00:11:31.889Z,102062.31
2022-10-20T00:14:01.248Z,102055.53
2022-10-20T00:16:31.309Z,102044.06
2022-10-20T00:18:59.359Z,102045.50
2022-10-20T00:21:28.684Z,102037.69
2022-10-20T00:23:58.909Z,102042.66
2022-10-20T00:26:28.542Z,102038.59
2022-10-20T00:28:56.912Z,102022.94
2022-10-20T00:31:25.990Z,102029.56
2022-10-20T00:33:54.036Z,102023.88
2022-10-20T00:36:23.398Z,102018.19
2022-10-20T00:38:51.473Z,102021.06
2022-10-20T00:41:21.441Z,102010.88
2022-10-20T00:43:54.871Z,102009.25
2022-10-20T00:46:30.412Z,102005.38
2022-10-20T00:49:02.861Z,102004.41
2022-10-20T00:51:33.478Z,102003.91
2022-10-20T00:54:10.736Z,102008.84
2022-10-20T00:56:42.159Z,102012.81
2022-10-20T00:59:11.834Z,101997.31
2022-10-20T01:01:41.417Z,101998.22
2022-10-20T01:04:09.029Z,101987.25
2022-10-20T01:06:36.792Z,101978.81
2022-10-20T01:09:05.435Z,101976.41
2022-10-20T01:11:49.847Z,101963.59
2022-10-20T01:14:47.901Z,101957.81
2022-10-20T01:17:26.733Z,101951.03
2022-10-20T01:20:15.497Z,101945.53
2022-10-20T01:23:04.622Z,101941.50
2022-10-20T01:25:46.642Z,101952.13
2022-10-20T01:28:30.321Z,101956.59
2022-10-20T01:31:02.004Z,101956.91
2022-10-20T01:34:02.652Z,101953.69
2022-10-20T01:36:57.685Z,101950.63
2022-10-20T01:39:40.287Z,101945.25
2022-10-20T01:42:13.352Z,101948.28
2022-10-20T01:44:42.590Z,101944.72
2022-10-20T01:47:11.713Z,101937.03
2022-10-20T01:49:43.727Z,101931.03
2022-10-20T01:52:12.339Z,101925.03
2022-10-20T01:54:40.077Z,101915.50
2022-10-20T01:57:15.260Z,101907.91
2022-10-20T02:00:14.825Z,101909.00
2022-10-20T02:03:39.441Z,101886.09
2022-10-20T02:06:31.265Z,101873.50
2022-10-20T02:09:05.660Z,101887.22
2022-10-20T02:11:48.474Z,101885.91
2022-10-20T02:14:18.609Z,101881.03
2022-10-20T02:17:02.498Z,101888.13
2022-10-20T02:19:35.073Z,101893.78
2022-10-20T02:22:04.414Z,101881.53
2022-10-20T02:24:36.347Z,101872.00
2022-10-20T02:27:11.304Z,101858.31
2022-10-20T02:29:44.183Z,101855.06
2022-10-20T02:32:12.785Z,101861.97
2022-10-20T02:34:42.482Z,101855.69
2022-10-20T02:37:10.820Z,101854.25
2022-10-20T02:39:38.239Z,101854.44
2022-10-20T02:42:06.129Z,101840.56
2022-10-20T02:44:33.787Z,101856.50
2022-10-20T02:47:01.276Z,101850.50
2022-10-20T02:49:28.871Z,101854.84
2022-10-20T02:51:56.525Z,101842.81
2022-10-20T02:54:23.974Z,101839.25
2022-10-20T02:56:51.366Z,101838.44
2022-10-20T02:59:18.876Z,101834.38
2022-10-20T03:01:47.121Z,101823.41
2022-10-20T03:04:15.490Z,101809.19
2022-10-20T03:06:42.988Z,101804.53
2022-10-20T03:09:10.417Z,101805.16
2022-10-20T03:11:37.981Z,101801.50
2022-10-20T03:14:05.364Z,101786.19
2022-10-20T03:16:32.800Z,101780.56
2022-10-20T03:19:03.927Z,101774.00
2022-10-20T03:21:35.260Z,101775.72
2022-10-20T03:24:02.672Z,101762.03
2022-10-20T03:26:30.085Z,101750.44
2022-10-20T03:28:57.919Z,101754.81
2022-10-20T03:31:25.658Z,101746.94
2022-10-20T03:33:53.048Z,101730.78
2022-10-20T03:36:20.630Z,101723.19
2022-10-20T03:38:47.998Z,101714.66
2022-10-20T03:41:15.346Z,101717.09
2022-10-20T03:43:42.837Z,101715.47
2022-10-20T03:46:12.042Z,101715.47
2022-10-20T03:48:40.067Z,101712.09
2022-10-20T03:51:07.833Z,101709.69
2022-10-20T03:53:35.700Z,101708.88
2022-10-20T03:56:11.229Z,101706.13
2022-10-20T03:58:38.616Z,101698.41
2022-10-20T04:01:07.572Z,101695.66
2022-10-20T04:03:35.065Z,101695.19
2022-10-20T04:06:02.406Z,101691.31
2022-10-20T04:08:29.823Z,101698.59
2022-10-20T04:10:58.032Z,101691.69
2022-10-20T04:13:25.527Z,101689.28
2022-10-20T04:15:52.977Z,101689.00
2022-10-20T04:18:20.569Z,101674.53
2022-10-20T04:20:48.886Z,101693.56
2022-10-20T04:23:16.407Z,101694.38
2022-10-20T04:25:48.608Z,101689.19
2022-10-20T04:28:18.087Z,101687.28
2022-10-20T04:30:46.558Z,101674.06
2022-10-20T04:33:14.434Z,101666.16
2022-10-20T04:35:42.285Z,101664.53
2022-10-20T04:38:09.961Z,101664.03
2022-10-20T04:40:37.495Z,101661.78
2022-10-20T04:43:04.900Z,101652.47
2022-10-20T04:45:32.341Z,101648.09
2022-10-20T04:47:59.870Z,101656.00
2022-10-20T04:50:27.661Z,101655.50
2022-10-20T04:53:08.593Z,101644.88
2022-10-20T04:55:36.435Z,101649.53
2022-10-20T04:58:03.941Z,101638.09
2022-10-20T05:00:31.510Z,101633.72
2022-10-20T05:02:58.945Z,101638.09
2022-10-20T05:05:26.536Z,101625.50
2022-10-20T05:07:54.217Z,101629.97
2022-10-20T05:10:21.647Z,101614.97
2022-10-20T05:12:49.070Z,101603.22
2022-10-20T05:15:16.791Z,101605.47
2022-10-20T05:17:44.128Z,101598.38
2022-10-20T05:20:11.508Z,101590.16
2022-10-20T05:22:39.416Z,101574.03
2022-10-20T05:25:31.273Z,101571.28
2022-10-20T05:27:54.851Z,101565.00
2022-10-20T05:30:22.198Z,101554.38
2022-10-20T05:32:49.555Z,101552.75
2022-10-20T05:35:17.461Z,101534.19
2022-10-20T05:37:44.855Z,101531.47
2022-10-20T05:40:12.743Z,101527.09
2022-10-20T05:42:40.572Z,101523.56
2022-10-20T05:45:08.968Z,101523.25
2022-10-20T05:47:36.311Z,101524.34
2022-10-20T05:50:04.260Z,101541.59
2022-10-20T05:52:31.847Z,101538.56
2022-10-20T05:54:59.590Z,101527.59
2022-10-20T05:57:27.276Z,101523.72
2022-10-20T05:59:54.676Z,101525.69
2022-10-20T06:02:22.275Z,101510.66
2022-10-20T06:04:49.901Z,101518.09
2022-10-20T06:07:17.320Z,101512.63
2022-10-20T06:09:44.645Z,101514.72
2022-10-20T06:12:13.183Z,101509.25
2022-10-20T06:14:40.602Z,101507.63
2022-10-20T06:17:08.079Z,101511.16
2022-10-20T06:19:35.691Z,101500.22
2022-10-20T06:22:05.926Z,101511.03
2022-10-20T06:24:34.688Z,101517.00
2022-10-20T06:27:02.207Z,101521.84
2022-10-20T06:29:29.612Z,101522.66
2022-10-20T06:31:57.348Z,101526.69
2022-10-20T06:34:25.963Z,101516.72
2022-10-20T06:36:53.769Z,101506.75
2022-10-20T06:39:23.126Z,101495.66
2022-10-20T06:41:52.929Z,101491.16
2022-10-20T06:44:22.551Z,101489.38
2022-10-20T06:46:52.565Z,101484.41
2022-10-20T06:49:20.889Z,101490.84
2022-10-20T06:51:49.005Z,101499.25
2022-10-20T06:54:17.158Z,101498.31
2022-10-20T06:56:44.652Z,101488.81
2022-10-20T06:59:12.555Z,101502.38
2022-10-20T07:01:40.203Z,101498.66
2022-10-20T07:04:15.088Z,101501.56
2022-10-20T07:06:44.599Z,101496.75
2022-10-20T07:09:17.578Z,101500.63
2022-10-20T07:11:45.735Z,101504.34
2022-10-20T07:14:14.076Z,101513.56
2022-10-20T07:16:41.962Z,101512.59
2022-10-20T07:19:10.076Z,101509.22
2022-10-20T07:21:40.183Z,101477.25
2022-10-20T07:24:10.126Z,101470.81
2022-10-20T07:26:40.216Z,101479.22
2022-10-20T07:29:08.134Z,101486.81
2022-10-20T07:31:41.243Z,101491.31
2022-10-20T07:34:24.529Z,101490.34
2022-10-20T07:36:55.113Z,101501.47
2022-10-20T07:39:22.784Z,101491.81
2022-10-20T07:41:50.975Z,101486.94
2022-10-20T07:44:19.066Z,101480.00
2022-10-20T07:46:46.516Z,101479.00
2022-10-20T07:52:01.657Z,101463.34
2022-10-20T07:54:29.061Z,101459.94
2022-10-20T07:56:56.510Z,101463.97
2022-10-20T07:59:24.704Z,101473.34
2022-10-20T08:01:54.714Z,101473.66
2022-10-20T08:04:23.828Z,101475.56
2022-10-20T08:06:51.770Z,101463.44
2022-10-20T08:09:19.274Z,101468.91
2022-10-20T08:11:46.629Z,101461.31
2022-10-20T08:14:14.315Z,101453.91
2022-10-20T08:16:48.924Z,101447.25
2022-10-20T08:19:26.244Z,101427.69
2022-10-20T08:21:53.825Z,101431.56
2022-10-20T08:24:21.492Z,101429.13
2022-10-20T08:26:48.928Z,101434.13
2022-10-20T08:29:16.336Z,101435.84
2022-10-20T08:31:44.726Z,101414.34
2022-10-20T08:34:12.242Z,101419.81
2022-10-20T08:36:39.780Z,101413.44
2022-10-20T08:39:07.897Z,101404.47
2022-10-20T08:42:07.512Z,101400.06
2022-10-20T08:44:35.650Z,101403.38
2022-10-20T08:47:12.010Z,101403.22
2022-10-20T08:49:39.689Z,101410.59
2022-10-20T08:52:14.062Z,101408.78
2022-10-20T08:54:42.084Z,101404.00
2022-10-20T08:57:36.644Z,101407.28
2022-10-20T09:00:22.482Z,101393.88
2022-10-20T09:02:51.459Z,101381.78
2022-10-20T09:05:26.602Z,101378.69
2022-10-20T09:07:54.884Z,101374.81
2022-10-20T09:10:35.412Z,101374.56
2022-10-20T09:13:06.876Z,101373.59
2022-10-20T09:15:34.526Z,101383.81
2022-10-20T09:18:10.872Z,101382.34
2022-10-20T09:20:54.396Z,101377.44
2022-10-20T09:23:46.768Z,101371.72
2022-10-20T09:26:30.460Z,101377.47
2022-10-20T09:29:16.557Z,101363.84
2022-10-20T09:31:49.599Z,101359.19
2022-10-20T09:34:27.528Z,101348.66
2022-10-20T09:37:07.519Z,101340.06
2022-10-20T09:39:56.979Z,101332.16
2022-10-20T09:42:41.207Z,101329.50
2022-10-20T09:45:22.208Z,101327.19
2022-10-20T09:47:54.813Z,101333.63
2022-10-20T09:50:35.515Z,101323.94
2022-10-20T09:53:07.532Z,101322.38
2022-10-20T09:55:45.446Z,101325.16
2022-10-20T09:58:23.213Z,101310.88
2022-10-20T10:01:14.511Z,101302.19
2022-10-20T10:03:47.352Z,101296.75
2022-10-20T10:06:29.089Z,101290.91
2022-10-20T10:08:58.223Z,101289.66
2022-10-20T10:11:32.950Z,101294.91
2022-10-20T10:14:01.395Z,101281.50
2022-10-20T10:16:40.894Z,101277.13
2022-10-20T10:19:17.946Z,101288.66
2022-10-20T10:22:00.474Z,101293.41
2022-10-20T10:24:43.701Z,101283.00
2022-10-20T10:27:27.869Z,101283.53
2022-10-20T10:30:16.904Z,101272.56
2022-10-20T10:32:45.724Z,101266.84
2022-10-20T10:35:15.710Z,101264.59
2022-10-20T10:37:44.795Z,101268.41
2022-10-20T10:40:32.622Z,101256.25
2022-10-20T10:43:13.126Z,101270.41
2022-10-20T10:45:56.649Z,101272.03
2022-10-20T10:48:46.045Z,101259.22
2022-10-20T10:51:32.278Z,101262.72
2022-10-20T10:54:11.732Z,101260.03
2022-10-20T10:56:51.791Z,101258.50
2022-10-20T10:59:42.645Z,101272.41
2022-10-20T11:02:34.925Z,101265.22
2022-10-20T11:05:27.005Z,101261.63
2022-10-20T11:08:22.616Z,101256.09
2022-10-20T11:11:19.754Z,101248.84
2022-10-20T11:14:08.532Z,101247.22
2022-10-20T11:16:46.285Z,101239.09
2022-10-20T11:19:38.273Z,101241.63
2022-10-20T11:22:23.693Z,101233.78
2022-10-20T11:25:34.377Z,101237.44
2022-10-20T11:28:02.250Z,101210.13
2022-10-20T11:30:33.812Z,101219.31
2022-10-20T11:33:09.014Z,101209.38
2022-10-20T11:35:54.697Z,101210.06
2022-10-20T11:38:39.372Z,101210.06
2022-10-20T11:41:13.265Z,101194.97
2022-10-20T11:43:51.640Z,101216.03
2022-10-20T11:46:30.644Z,101212.09
2022-10-20T11:49:01.679Z,101203.31
2022-10-20T11:51:31.482Z,101204.03
2022-10-20T11:54:20.740Z,101214.94
2022-10-20T11:57:32.554Z,101205.78
2022-10-20T12:03:20.480Z,101201.31
2022-10-20T12:06:09.198Z,101204.00
2022-10-20T12:08:54.706Z,101207.94
2022-10-20T12:12:06.847Z,101192.88
2022-10-20T12:14:42.485Z,101185.91
2022-10-20T12:17:31.090Z,101184.84
2022-10-20T12:20:21.792Z,101183.75
2022-10-20T12:22:52.663Z,101177.22
2022-10-20T12:25:26.191Z,101166.66
2022-10-20T12:28:25.220Z,101163.41
2022-10-20T12:30:58.699Z,101154.97
2022-10-20T12:33:41.253Z,101158.91
2022-10-20T12:36:17.649Z,101154.09
2022-10-20T12:38:51.082Z,101155.56
2022-10-20T12:41:29.048Z,101158.25
2022-10-20T12:44:20.195Z,101149.81
2022-10-20T12:47:06.824Z,101145.31
2022-10-20T12:49:44.309Z,101151.56
2022-10-20T12:52:22.437Z,101142.84
2022-10-20T12:54:59.266Z,101132.13
2022-10-20T12:57:32.224Z,101130.59
2022-10-20T12:59:59.662Z,101132.94
2022-10-20T13:02:26.947Z,101131.31
2022-10-20T13:05:04.594Z,101140.78
2022-10-20T13:07:52.625Z,101132.13
2022-10-20T13:10:37.687Z,101124.13
2022-10-20T13:13:05.008Z,101123.31
2022-10-20T13:15:34.491Z,101117.72
2022-10-20T13:18:14.002Z,101116.84
2022-10-20T13:21:21.206Z,101109.63
2022-10-20T13:23:58.607Z,101102.78
2022-10-20T13:26:39.420Z,101095.94
2022-10-20T13:29:16.035Z,101101.84
2022-10-20T13:32:25.408Z,101103.00
2022-10-20T13:35:00.228Z,101099.53
2022-10-20T13:37:50.146Z,101105.06
2022-10-20T13:40:27.678Z,101102.28
2022-10-20T13:43:23.244Z,101105.69
2022-10-20T13:45:51.067Z,101105.69
2022-10-20T13:48:39.582Z,101101.41
2022-10-20T13:51:19.780Z,101110.91
2022-10-20T13:53:52.650Z,101101.06
2022-10-20T13:56:42.536Z,101103.44
2022-10-20T13:59:21.189Z,101102.63
2022-10-20T14:01:57.903Z,101095.88
2022-10-20T14:04:34.577Z,101093.91
2022-10-20T14:07:10.041Z,101097.78
2022-10-20T14:09:39.553Z,101096.88
2022-10-20T14:12:19.541Z,101101.19
2022-10-20T14:14:47.025Z,101094.84
2022-10-20T14:17:24.729Z,101094.47
2022-10-20T14:20:08.705Z,101087.00
2022-10-20T14:22:36.657Z,101085.84
2022-10-20T14:25:05.523Z,101075.94
2022-10-20T14:27:36.379Z,101069.19
2022-10-20T14:30:07.992Z,101061.31
2022-10-20T14:32:40.455Z,101057.06
2022-10-20T14:35:20.780Z,101044.91
2022-10-20T14:37:55.329Z,101046.84
2022-10-20T14:40:26.546Z,101044.91
2022-10-20T14:43:13.645Z,101040.19
2022-10-20T14:45:41.623Z,101029.56
2022-10-20T14:48:16.567Z,101028.91
2022-10-20T14:50:44.319Z,101031.81
2022-10-20T14:53:25.204Z,101035.81
2022-10-20T14:55:54.152Z,101029.97
2022-10-20T14:58:38.643Z,101025.25
2022-10-20T15:01:26.671Z,101027.53
2022-10-20T15:04:26.624Z,101031.44
2022-10-20T15:07:14.467Z,101024.34
2022-10-20T15:09:45.650Z,101027.44
2022-10-20T15:12:20.036Z,101026.63
2022-10-20T15:14:51.515Z,101031.00
2022-10-20T15:17:36.589Z,101028.25
2022-10-20T15:20:35.078Z,101023.16
2022-10-20T15:23:02.696Z,101027.53
2022-10-20T15:25:35.932Z,101016.88
2022-10-20T15:28:03.566Z,101023.22
2022-10-20T15:30:31.897Z,101024.03
2022-10-20T15:32:59.472Z,101019.38
2022-10-20T15:35:30.908Z,101017.47
2022-10-20T15:37:58.246Z,101020.69
2022-10-20T15:40:25.846Z,101019.06
2022-10-20T15:42:54.303Z,101030.94
2022-10-20T15:45:24.493Z,101032.09
2022-10-20T15:47:51.843Z,101028.97
2022-10-20T15:50:21.748Z,101036.09
2022-10-20T15:52:51.848Z,101024.69
2022-10-20T15:55:24.081Z,101023.13
2022-10-20T15:57:53.316Z,101019.56
2022-10-20T16:00:22.831Z,101023.56
2022-10-20T16:02:50.818Z,101016.88
2022-10-20T16:05:20.268Z,101023.63
2022-10-20T16:07:47.888Z,101013.38
2022-10-20T16:10:15.419Z,101017.00
2022-10-20T16:12:42.989Z,101007.19
2022-10-20T16:15:11.316Z,101010.00
2022-10-20T16:17:38.919Z,101007.69
2022-10-20T16:20:07.750Z,101012.03
2022-10-20T16:22:36.083Z,101005.34
2022-10-20T16:25:04.643Z,100999.81
2022-10-20T16:27:33.438Z,101006.94
2022-10-20T16:30:01.893Z,100995.88
2022-10-20T16:32:32.977Z,100996.31
2022-10-20T16:35:05.581Z,101002.63
2022-10-20T16:37:33.980Z,101003.44
2022-10-20T16:40:01.661Z,100993.19
2022-10-20T16:42:32.905Z,100988.44
2022-10-20T16:45:00.396Z,100982.16
2022-10-20T16:47:28.090Z,100986.53
2022-10-20T16:49:55.867Z,100981.81
2022-10-20T16:52:24.259Z,100987.34
2022-10-20T16:54:51.888Z,100982.59
2022-10-20T16:57:19.417Z,100985.72
2022-10-20T16:59:50.314Z,100986.59
2022-10-20T17:02:18.924Z,100986.66
2022-10-20T17:04:49.726Z,100991.88
2022-10-20T17:07:17.804Z,100990.34
2022-10-20T17:09:45.670Z,100989.97
2022-10-20T17:12:13.216Z,100992.34
2022-10-20T17:14:40.831Z,100990.81
2022-10-20T17:17:08.317Z,100990.06
2022-10-20T17:19:36.032Z,100992.09
2022-10-20T17:22:03.524Z,100989.78
2022-10-20T17:24:31.263Z,100983.84
2022-10-20T17:26:58.962Z,100984.66
2022-10-20T17:29:26.609Z,100994.63
2022-10-20T17:31:54.043Z,100989.09
2022-10-20T17:34:21.722Z,100993.44
2022-10-20T17:36:49.336Z,101002.16
2022-10-20T17:39:17.372Z,101001.44
2022-10-20T17:41:44.899Z,100996.75
2022-10-20T17:44:12.393Z,100986.91
2022-10-20T17:46:39.913Z,100989.31
2022-10-20T17:49:07.578Z,101000.00
2022-10-20T17:51:35.236Z,100991.78
2022-10-20T17:54:03.813Z,100991.44
2022-10-20T17:56:35.997Z,100989.13
2022-10-20T17:59:05.625Z,100981.25
2022-10-20T18:01:35.964Z,100980.88
2022-10-20T18:04:07.349Z,100986.03
2022-10-20T18:06:36.086Z,100979.69
2022-10-20T18:09:06.895Z,100982.00
2022-10-20T18:11:36.012Z,100983.59
2022-10-20T18:14:03.750Z,100982.00
2022-10-20T18:16:33.032Z,100975.66
2022-10-20T18:19:00.999Z,100986.41
2022-10-20T18:21:29.912Z,100986.44
2022-10-20T18:24:04.062Z,100982.16
2022-10-20T18:26:33.966Z,100981.41
2022-10-20T18:29:02.926Z,100979.06
2022-10-20T18:31:32.481Z,100981.06
2022-10-20T18:34:07.124Z,100977.16
2022-10-20T18:36:39.325Z,100977.63
2022-10-20T18:39:10.507Z,100974.03
2022-10-20T18:41:40.170Z,100981.19
2022-10-20T18:44:11.605Z,100970.53
2022-10-20T18:46:39.778Z,100964.22
2022-10-20T18:49:08.289Z,100961.50
2022-10-20T18:51:36.603Z,100968.16
2022-10-20T18:54:05.801Z,100955.91
2022-10-20T18:56:35.627Z,100950.72
2022-10-20T18:59:07.685Z,100954.59
2022-10-20T19:01:37.446Z,100950.19
2022-10-20T19:04:06.074Z,100953.28
2022-10-20T19:06:39.743Z,100944.03
2022-10-20T19:09:10.311Z,100942.47
2022-10-20T19:11:40.150Z,100943.22
2022-10-20T19:14:11.942Z,100939.25
2022-10-20T19:16:41.646Z,100936.00
2022-10-20T19:19:09.904Z,100936.72
2022-10-20T19:21:37.847Z,100935.44
2022-10-20T19:24:14.487Z,100932.22
2022-10-20T19:26:57.215Z,100923.91
2022-10-20T19:29:30.856Z,100921.88
2022-10-20T19:32:01.041Z,100921.44
2022-10-20T19:34:32.366Z,100920.94
2022-10-20T19:37:00.478Z,100916.16
2022-10-20T19:39:33.931Z,100917.72
2022-10-20T19:42:03.141Z,100916.84
2022-10-20T19:44:30.892Z,100903.00
2022-10-20T19:46:58.961Z,100910.00
2022-10-20T19:49:26.628Z,100906.84
2022-10-20T19:51:54.361Z,100910.00
2022-10-20T19:54:22.187Z,100908.00
2022-10-20T19:56:49.738Z,100904.47
2022-10-20T19:59:17.621Z,100910.03
2022-10-20T20:01:45.199Z,100911.97
2022-10-20T20:04:13.126Z,100904.81
2022-10-20T20:06:41.833Z,100912.31
2022-10-20T20:09:11.961Z,100909.94
2022-10-20T20:11:40.034Z,100899.69
2022-10-20T20:14:12.333Z,100902.00
2022-10-20T20:16:40.837Z,100897.66
2022-10-20T20:19:08.418Z,100904.72
2022-10-20T20:21:36.746Z,100894.94
2022-10-20T20:24:05.391Z,100889.38
2022-10-20T20:26:35.663Z,100885.78
2022-10-20T20:29:03.773Z,100890.09
2022-10-20T20:31:32.700Z,100884.06
2022-10-20T20:34:00.383Z,100884.38
2022-10-20T20:36:29.052Z,100885.88
2022-10-20T20:38:58.409Z,100877.97
2022-10-20T20:41:28.128Z,100869.28
2022-10-20T20:43:56.463Z,100878.00
2022-10-20T20:46:27.676Z,100872.44
2022-10-20T20:48:55.519Z,100866.91
2022-10-20T20:51:23.626Z,100863.75
2022-10-20T20:53:51.344Z,100857.00
2022-10-20T20:56:21.774Z,100860.50
2022-10-20T20:58:54.745Z,100864.38
2022-10-20T21:01:27.765Z,100865.97
2022-10-20T21:03:56.728Z,100867.56
2022-10-20T21:06:33.238Z,100866.72
2022-10-20T21:09:08.500Z,100869.84
2022-10-20T21:11:36.635Z,100872.97
2022-10-20T21:14:05.135Z,100876.53
2022-10-20T21:16:35.394Z,100874.94
2022-10-20T21:19:09.520Z,100876.47
2022-10-20T21:21:39.413Z,100885.09
2022-10-20T21:24:06.970Z,100873.63
2022-10-20T21:26:34.553Z,100865.25
2022-10-20T21:29:02.094Z,100878.28
2022-10-20T21:31:30.316Z,100878.63
2022-10-20T21:34:03.394Z,100888.91
2022-10-20T21:36:32.607Z,100886.91
2022-10-20T21:39:00.133Z,100884.94
2022-10-20T21:41:33.166Z,100881.22
2022-10-20T21:44:01.939Z,100877.84
2022-10-20T21:46:30.425Z,100873.53
2022-10-20T21:49:06.438Z,100877.41
2022-10-20T21:51:39.383Z,100890.00
2022-10-20T21:54:11.047Z,100881.22
2022-10-20T21:56:41.241Z,100874.53
2022-10-20T21:59:15.748Z,100880.53
2022-10-20T22:01:43.204Z,100882.25
2022-10-20T22:04:10.553Z,100885.94
2022-10-20T22:06:38.999Z,100887.97
2022-10-20T22:09:07.314Z,100869.34
2022-10-20T22:11:37.820Z,100876.28
2022-10-20T22:14:06.559Z,100878.50
2022-10-20T22:16:36.423Z,100871.34
2022-10-20T22:19:06.558Z,100877.22
2022-10-20T22:21:38.825Z,100882.75
2022-10-20T22:24:06.938Z,100868.50
2022-10-20T22:26:35.216Z,100871.41
2022-10-20T22:29:04.924Z,100868.25
2022-10-20T22:31:32.454Z,100867.03
2022-10-20T22:33:59.983Z,100855.03
2022-10-20T22:36:29.081Z,100862.50
2022-10-20T22:38:56.606Z,100869.97
2022-10-20T22:41:24.365Z,100879.38
2022-10-20T22:43:52.162Z,100863.16
2022-10-20T22:46:19.936Z,100865.94
2022-10-20T22:48:47.546Z,100863.81
2022-10-20T22:51:16.144Z,100866.97
2022-10-20T22:53:55.699Z,100863.03
2022-10-20T22:56:23.964Z,100849.22
2022-10-20T22:58:53.229Z,100857.09
2022-10-20T23:01:22.573Z,100858.38
2022-10-20T23:03:51.573Z,100861.19
2022-10-20T23:06:24.811Z,100858.44
2022-10-20T23:08:56.016Z,100851.44
2022-10-20T23:11:24.051Z,100853.88
2022-10-20T23:13:51.850Z,100857.03
2022-10-20T23:16:19.512Z,100853.41
2022-10-20T23:18:47.668Z,100845.03
2022-10-20T23:21:15.258Z,100843.75
2022-10-20T23:23:43.492Z,100847.25
2022-10-20T23:26:12.311Z,100837.75
2022-10-20T23:28:39.696Z,100836.13
2022-10-20T23:31:12.901Z,100838.41
2022-10-20T23:33:41.575Z,100841.09
2022-10-20T23:36:09.872Z,100831.97
2022-10-20T23:38:37.482Z,100843.03
2022-10-20T23:41:05.559Z,100845.78
2022-10-20T23:43:33.724Z,100849.28
2022-10-20T23:46:01.527Z,100842.88
2022-10-20T23:48:29.367Z,100838.09
2022-10-20T23:50:57.497Z,100836.44
2022-10-20T23:53:25.219Z,100839.53
2022-10-20T23:55:52.852Z,100839.53
2022-10-20T23:58:22.297Z,100847.38
